sensor_id;sensor_type;location;lat;lon;timestamp;P1;durP1;ratioP1;P2;durP2;ratioP2
15655;SDS011;7928;43.614;1.456;2023-02-15T00:02:00;6.17;;;4.33;;
15655;SDS011;7928;43.614;1.456;2023-02-15T00:04:27;8.10;;;5.00;;
15655;SDS011;7928;43.614;1.456;2023-02-15T00:07:13;10.53;;;5.00;;
15655;SDS011;7928;43.614;1.456;2023-02-15T00:09:41;9.23;;;4.63;;
15655;SDS011;7928;43.614;1.456;2023-02-15T00:12:08;6.00;;;4.20;;
15655;SDS011;7928;43.614;1.456;2023-02-15T00:14:36;8.03;;;5.40;;
15655;SDS011;7928;43.614;1.456;2023-02-15T00:17:03;8.50;;;4.80;;
15655;SDS011;7928;43.614;1.456;2023-02-15T00:19:30;8.10;;;4.67;;
15655;SDS011;7928;43.614;1.456;2023-02-15T00:21:57;8.33;;;4.67;;
15655;SDS011;7928;43.614;1.456;2023-02-15T00:24:26;7.73;;;5.20;;
15655;SDS011;7928;43.614;1.456;2023-02-15T00:26:54;7.43;;;4.73;;
15655;SDS011;7928;43.614;1.456;2023-02-15T00:29:21;8.33;;;4.70;;
15655;SDS011;7928;43.614;1.456;2023-02-15T00:31:48;7.17;;;4.97;;
15655;SDS011;7928;43.614;1.456;2023-02-15T00:34:16;7.80;;;4.03;;
15655;SDS011;7928;43.614;1.456;2023-02-15T00:36:44;7.47;;;4.20;;
15655;SDS011;7928;43.614;1.456;2023-02-15T00:39:12;10.60;;;4.83;;
15655;SDS011;7928;43.614;1.456;2023-02-15T00:41:41;8.77;;;4.43;;
15655;SDS011;7928;43.614;1.456;2023-02-15T00:44:08;8.83;;;5.30;;
15655;SDS011;7928;43.614;1.456;2023-02-15T00:46:35;6.20;;;4.47;;
15655;SDS011;7928;43.614;1.456;2023-02-15T00:49:03;8.00;;;4.73;;
15655;SDS011;7928;43.614;1.456;2023-02-15T00:51:30;12.10;;;5.70;;
15655;SDS011;7928;43.614;1.456;2023-02-15T00:53:57;9.10;;;4.90;;
15655;SDS011;7928;43.614;1.456;2023-02-15T00:56:25;7.70;;;4.67;;
15655;SDS011;7928;43.614;1.456;2023-02-15T00:58:54;9.10;;;5.00;;
15655;SDS011;7928;43.614;1.456;2023-02-15T01:01:21;6.67;;;4.50;;
15655;SDS011;7928;43.614;1.456;2023-02-15T01:03:50;9.13;;;4.53;;
15655;SDS011;7928;43.614;1.456;2023-02-15T01:06:17;7.73;;;4.63;;
15655;SDS011;7928;43.614;1.456;2023-02-15T01:08:44;8.60;;;5.00;;
15655;SDS011;7928;43.614;1.456;2023-02-15T01:11:13;10.17;;;5.10;;
15655;SDS011;7928;43.614;1.456;2023-02-15T01:13:46;9.33;;;5.40;;
15655;SDS011;7928;43.614;1.456;2023-02-15T01:16:15;8.40;;;4.87;;
15655;SDS011;7928;43.614;1.456;2023-02-15T01:18:43;8.40;;;5.10;;
15655;SDS011;7928;43.614;1.456;2023-02-15T01:21:11;10.23;;;5.20;;
15655;SDS011;7928;43.614;1.456;2023-02-15T01:23:39;9.17;;;4.70;;
15655;SDS011;7928;43.614;1.456;2023-02-15T01:26:07;10.30;;;6.53;;
15655;SDS011;7928;43.614;1.456;2023-02-15T01:28:34;8.57;;;5.30;;
15655;SDS011;7928;43.614;1.456;2023-02-15T01:31:04;9.87;;;5.50;;
15655;SDS011;7928;43.614;1.456;2023-02-15T01:33:34;11.57;;;5.87;;
15655;SDS011;7928;43.614;1.456;2023-02-15T01:36:02;8.77;;;4.87;;
15655;SDS011;7928;43.614;1.456;2023-02-15T01:38:29;9.80;;;5.10;;
15655;SDS011;7928;43.614;1.456;2023-02-15T01:40:57;7.27;;;5.53;;
15655;SDS011;7928;43.614;1.456;2023-02-15T01:43:45;8.20;;;5.47;;
15655;SDS011;7928;43.614;1.456;2023-02-15T01:46:15;9.47;;;5.03;;
15655;SDS011;7928;43.614;1.456;2023-02-15T01:48:46;9.33;;;5.30;;
15655;SDS011;7928;43.614;1.456;2023-02-15T01:51:17;8.30;;;4.50;;
15655;SDS011;7928;43.614;1.456;2023-02-15T01:53:49;8.33;;;5.30;;
15655;SDS011;7928;43.614;1.456;2023-02-15T01:56:20;9.37;;;5.57;;
15655;SDS011;7928;43.614;1.456;2023-02-15T01:58:51;9.40;;;5.17;;
15655;SDS011;7928;43.614;1.456;2023-02-15T02:01:22;9.23;;;4.90;;
15655;SDS011;7928;43.614;1.456;2023-02-15T02:03:56;11.63;;;4.60;;
15655;SDS011;7928;43.614;1.456;2023-02-15T02:06:27;11.50;;;5.10;;
15655;SDS011;7928;43.614;1.456;2023-02-15T02:08:55;11.00;;;5.67;;
15655;SDS011;7928;43.614;1.456;2023-02-15T02:11:23;12.17;;;5.33;;
15655;SDS011;7928;43.614;1.456;2023-02-15T02:13:50;11.53;;;4.60;;
15655;SDS011;7928;43.614;1.456;2023-02-15T02:16:20;11.57;;;5.00;;
15655;SDS011;7928;43.614;1.456;2023-02-15T02:18:57;10.30;;;5.07;;
15655;SDS011;7928;43.614;1.456;2023-02-15T02:24:34;13.10;;;5.87;;
15655;SDS011;7928;43.614;1.456;2023-02-15T02:27:23;9.10;;;5.73;;
15655;SDS011;7928;43.614;1.456;2023-02-15T02:33:09;8.93;;;5.27;;
15655;SDS011;7928;43.614;1.456;2023-02-15T02:36:03;8.47;;;5.63;;
15655;SDS011;7928;43.614;1.456;2023-02-15T02:38:42;7.93;;;5.07;;
15655;SDS011;7928;43.614;1.456;2023-02-15T02:41:20;9.70;;;5.47;;
15655;SDS011;7928;43.614;1.456;2023-02-15T02:43:54;10.70;;;6.00;;
15655;SDS011;7928;43.614;1.456;2023-02-15T02:46:30;9.50;;;6.03;;
15655;SDS011;7928;43.614;1.456;2023-02-15T02:49:02;10.63;;;5.83;;
15655;SDS011;7928;43.614;1.456;2023-02-15T02:51:29;15.70;;;5.70;;
15655;SDS011;7928;43.614;1.456;2023-02-15T02:53:56;10.03;;;6.03;;
15655;SDS011;7928;43.614;1.456;2023-02-15T02:56:27;10.30;;;6.33;;
15655;SDS011;7928;43.614;1.456;2023-02-15T02:58:59;9.73;;;5.73;;
15655;SDS011;7928;43.614;1.456;2023-02-15T03:01:31;10.17;;;5.77;;
15655;SDS011;7928;43.614;1.456;2023-02-15T03:04:03;8.47;;;5.83;;
15655;SDS011;7928;43.614;1.456;2023-02-15T03:06:36;11.90;;;6.67;;
15655;SDS011;7928;43.614;1.456;2023-02-15T03:09:08;12.03;;;5.97;;
15655;SDS011;7928;43.614;1.456;2023-02-15T03:11:46;9.57;;;6.87;;
15655;SDS011;7928;43.614;1.456;2023-02-15T03:14:14;11.83;;;6.20;;
15655;SDS011;7928;43.614;1.456;2023-02-15T03:16:45;12.77;;;6.63;;
15655;SDS011;7928;43.614;1.456;2023-02-15T03:19:16;12.60;;;6.40;;
15655;SDS011;7928;43.614;1.456;2023-02-15T03:21:48;9.60;;;6.00;;
15655;SDS011;7928;43.614;1.456;2023-02-15T03:24:29;7.37;;;6.43;;
15655;SDS011;7928;43.614;1.456;2023-02-15T03:27:02;11.80;;;6.70;;
15655;SDS011;7928;43.614;1.456;2023-02-15T03:29:30;10.67;;;6.77;;
15655;SDS011;7928;43.614;1.456;2023-02-15T03:32:00;10.43;;;7.10;;
15655;SDS011;7928;43.614;1.456;2023-02-15T03:34:31;11.47;;;6.37;;
15655;SDS011;7928;43.614;1.456;2023-02-15T03:36:59;10.90;;;6.03;;
15655;SDS011;7928;43.614;1.456;2023-02-15T03:39:35;10.67;;;6.73;;
15655;SDS011;7928;43.614;1.456;2023-02-15T03:42:06;11.60;;;7.27;;
15655;SDS011;7928;43.614;1.456;2023-02-15T03:44:39;11.40;;;6.73;;
15655;SDS011;7928;43.614;1.456;2023-02-15T03:47:13;9.57;;;7.00;;
15655;SDS011;7928;43.614;1.456;2023-02-15T03:49:47;10.90;;;5.90;;
15655;SDS011;7928;43.614;1.456;2023-02-15T03:52:18;9.00;;;6.03;;
15655;SDS011;7928;43.614;1.456;2023-02-15T03:54:48;12.40;;;6.47;;
15655;SDS011;7928;43.614;1.456;2023-02-15T03:57:17;14.13;;;8.23;;
15655;SDS011;7928;43.614;1.456;2023-02-15T04:00:04;10.10;;;8.67;;
15655;SDS011;7928;43.614;1.456;2023-02-15T04:05:50;9.53;;;7.13;;
15655;SDS011;7928;43.614;1.456;2023-02-15T04:08:17;12.80;;;7.70;;
15655;SDS011;7928;43.614;1.456;2023-02-15T04:10:44;9.83;;;7.63;;
15655;SDS011;7928;43.614;1.456;2023-02-15T04:13:21;10.83;;;7.77;;
15655;SDS011;7928;43.614;1.456;2023-02-15T04:15:50;12.23;;;7.33;;
15655;SDS011;7928;43.614;1.456;2023-02-15T04:18:31;15.67;;;7.47;;
15655;SDS011;7928;43.614;1.456;2023-02-15T04:21:18;8.10;;;7.30;;
15655;SDS011;7928;43.614;1.456;2023-02-15T04:24:04;10.93;;;7.77;;
15655;SDS011;7928;43.614;1.456;2023-02-15T04:26:49;10.07;;;7.63;;
15655;SDS011;7928;43.614;1.456;2023-02-15T04:29:18;12.97;;;7.60;;
15655;SDS011;7928;43.614;1.456;2023-02-15T04:31:45;11.23;;;8.33;;
15655;SDS011;7928;43.614;1.456;2023-02-15T04:34:13;12.27;;;7.73;;
15655;SDS011;7928;43.614;1.456;2023-02-15T04:36:41;11.93;;;8.57;;
15655;SDS011;7928;43.614;1.456;2023-02-15T04:39:09;14.07;;;9.40;;
15655;SDS011;7928;43.614;1.456;2023-02-15T04:41:39;11.13;;;9.07;;
15655;SDS011;7928;43.614;1.456;2023-02-15T04:44:07;12.80;;;8.20;;
15655;SDS011;7928;43.614;1.456;2023-02-15T04:46:34;10.57;;;8.13;;
15655;SDS011;7928;43.614;1.456;2023-02-15T04:49:01;13.07;;;7.83;;
15655;SDS011;7928;43.614;1.456;2023-02-15T04:51:28;11.77;;;9.07;;
15655;SDS011;7928;43.614;1.456;2023-02-15T04:53:57;12.83;;;7.90;;
15655;SDS011;7928;43.614;1.456;2023-02-15T04:56:24;11.60;;;8.63;;
15655;SDS011;7928;43.614;1.456;2023-02-15T04:58:51;10.47;;;7.63;;
15655;SDS011;7928;43.614;1.456;2023-02-15T05:01:27;12.80;;;7.97;;
15655;SDS011;7928;43.614;1.456;2023-02-15T05:03:54;9.47;;;8.10;;
15655;SDS011;7928;43.614;1.456;2023-02-15T05:06:22;11.90;;;8.00;;
15655;SDS011;7928;43.614;1.456;2023-02-15T05:08:49;11.83;;;8.23;;
15655;SDS011;7928;43.614;1.456;2023-02-15T05:11:17;13.93;;;8.00;;
15655;SDS011;7928;43.614;1.456;2023-02-15T05:13:44;13.33;;;8.33;;
15655;SDS011;7928;43.614;1.456;2023-02-15T05:16:11;11.27;;;8.87;;
15655;SDS011;7928;43.614;1.456;2023-02-15T05:18:38;13.37;;;8.13;;
15655;SDS011;7928;43.614;1.456;2023-02-15T05:21:05;10.23;;;6.90;;
15655;SDS011;7928;43.614;1.456;2023-02-15T05:23:32;9.00;;;8.10;;
15655;SDS011;7928;43.614;1.456;2023-02-15T05:25:59;8.60;;;6.97;;
15655;SDS011;7928;43.614;1.456;2023-02-15T05:28:45;10.93;;;8.03;;
15655;SDS011;7928;43.614;1.456;2023-02-15T05:31:13;12.17;;;8.40;;
15655;SDS011;7928;43.614;1.456;2023-02-15T05:33:42;11.07;;;8.17;;
15655;SDS011;7928;43.614;1.456;2023-02-15T05:36:10;8.70;;;7.13;;
15655;SDS011;7928;43.614;1.456;2023-02-15T05:38:37;8.40;;;7.33;;
15655;SDS011;7928;43.614;1.456;2023-02-15T05:41:05;10.37;;;7.60;;
15655;SDS011;7928;43.614;1.456;2023-02-15T05:43:33;9.57;;;7.27;;
15655;SDS011;7928;43.614;1.456;2023-02-15T05:46:02;12.70;;;7.90;;
15655;SDS011;7928;43.614;1.456;2023-02-15T05:48:29;10.90;;;7.40;;
15655;SDS011;7928;43.614;1.456;2023-02-15T05:50:57;11.07;;;8.00;;
15655;SDS011;7928;43.614;1.456;2023-02-15T05:53:25;9.80;;;7.20;;
15655;SDS011;7928;43.614;1.456;2023-02-15T05:55:52;8.50;;;7.20;;
15655;SDS011;7928;43.614;1.456;2023-02-15T05:58:23;10.33;;;7.07;;
15655;SDS011;7928;43.614;1.456;2023-02-15T06:00:51;11.70;;;7.47;;
15655;SDS011;7928;43.614;1.456;2023-02-15T06:03:19;11.27;;;7.80;;
15655;SDS011;7928;43.614;1.456;2023-02-15T06:05:47;9.63;;;7.23;;
15655;SDS011;7928;43.614;1.456;2023-02-15T06:08:14;11.40;;;9.63;;
15655;SDS011;7928;43.614;1.456;2023-02-15T06:10:41;11.47;;;7.63;;
15655;SDS011;7928;43.614;1.456;2023-02-15T06:13:09;10.03;;;7.53;;
15655;SDS011;7928;43.614;1.456;2023-02-15T06:15:36;12.40;;;7.77;;
15655;SDS011;7928;43.614;1.456;2023-02-15T06:18:03;12.93;;;7.40;;
15655;SDS011;7928;43.614;1.456;2023-02-15T06:20:31;11.30;;;7.97;;
15655;SDS011;7928;43.614;1.456;2023-02-15T06:22:58;14.30;;;8.67;;
15655;SDS011;7928;43.614;1.456;2023-02-15T06:25:25;16.07;;;8.20;;
15655;SDS011;7928;43.614;1.456;2023-02-15T06:27:52;14.87;;;10.43;;
15655;SDS011;7928;43.614;1.456;2023-02-15T06:30:19;13.03;;;8.67;;
15655;SDS011;7928;43.614;1.456;2023-02-15T06:32:46;17.43;;;8.33;;
15655;SDS011;7928;43.614;1.456;2023-02-15T06:35:13;11.30;;;8.23;;
15655;SDS011;7928;43.614;1.456;2023-02-15T06:37:42;12.40;;;7.33;;
15655;SDS011;7928;43.614;1.456;2023-02-15T06:40:12;13.00;;;7.57;;
15655;SDS011;7928;43.614;1.456;2023-02-15T06:42:39;11.47;;;7.40;;
15655;SDS011;7928;43.614;1.456;2023-02-15T06:45:07;12.13;;;7.13;;
15655;SDS011;7928;43.614;1.456;2023-02-15T06:47:35;10.43;;;7.47;;
15655;SDS011;7928;43.614;1.456;2023-02-15T06:50:02;13.17;;;7.47;;
15655;SDS011;7928;43.614;1.456;2023-02-15T06:52:30;10.00;;;7.73;;
15655;SDS011;7928;43.614;1.456;2023-02-15T06:54:58;9.97;;;7.23;;
15655;SDS011;7928;43.614;1.456;2023-02-15T06:57:25;8.60;;;7.00;;
15655;SDS011;7928;43.614;1.456;2023-02-15T06:59:53;10.97;;;7.07;;
15655;SDS011;7928;43.614;1.456;2023-02-15T07:02:20;11.77;;;6.60;;
15655;SDS011;7928;43.614;1.456;2023-02-15T07:04:47;15.30;;;7.50;;
15655;SDS011;7928;43.614;1.456;2023-02-15T07:07:14;10.83;;;7.07;;
15655;SDS011;7928;43.614;1.456;2023-02-15T07:09:41;15.87;;;7.33;;
15655;SDS011;7928;43.614;1.456;2023-02-15T07:12:09;13.53;;;7.60;;
15655;SDS011;7928;43.614;1.456;2023-02-15T07:14:54;10.07;;;7.07;;
15655;SDS011;7928;43.614;1.456;2023-02-15T07:17:21;12.03;;;7.47;;
15655;SDS011;7928;43.614;1.456;2023-02-15T07:19:48;11.20;;;7.73;;
15655;SDS011;7928;43.614;1.456;2023-02-15T07:22:15;10.47;;;7.50;;
15655;SDS011;7928;43.614;1.456;2023-02-15T07:24:42;9.77;;;6.90;;
15655;SDS011;7928;43.614;1.456;2023-02-15T07:27:10;10.33;;;7.20;;
15655;SDS011;7928;43.614;1.456;2023-02-15T07:29:37;8.60;;;6.53;;
15655;SDS011;7928;43.614;1.456;2023-02-15T07:32:05;11.90;;;6.57;;
15655;SDS011;7928;43.614;1.456;2023-02-15T07:34:32;13.93;;;7.33;;
15655;SDS011;7928;43.614;1.456;2023-02-15T07:36:59;14.90;;;7.40;;
15655;SDS011;7928;43.614;1.456;2023-02-15T07:39:26;12.07;;;7.33;;
15655;SDS011;7928;43.614;1.456;2023-02-15T07:41:53;11.20;;;7.13;;
15655;SDS011;7928;43.614;1.456;2023-02-15T07:44:21;8.87;;;6.33;;
15655;SDS011;7928;43.614;1.456;2023-02-15T07:46:48;11.10;;;7.03;;
15655;SDS011;7928;43.614;1.456;2023-02-15T07:49:15;11.37;;;7.37;;
15655;SDS011;7928;43.614;1.456;2023-02-15T07:51:42;9.13;;;6.50;;
15655;SDS011;7928;43.614;1.456;2023-02-15T07:54:09;10.00;;;6.50;;
15655;SDS011;7928;43.614;1.456;2023-02-15T07:56:36;15.00;;;6.57;;
15655;SDS011;7928;43.614;1.456;2023-02-15T07:59:03;10.77;;;6.43;;
15655;SDS011;7928;43.614;1.456;2023-02-15T08:01:33;16.37;;;6.57;;
15655;SDS011;7928;43.614;1.456;2023-02-15T08:04:01;17.07;;;7.10;;
15655;SDS011;7928;43.614;1.456;2023-02-15T08:06:30;15.37;;;7.33;;
15655;SDS011;7928;43.614;1.456;2023-02-15T08:08:58;12.23;;;6.37;;
15655;SDS011;7928;43.614;1.456;2023-02-15T08:11:26;11.63;;;6.93;;
15655;SDS011;7928;43.614;1.456;2023-02-15T08:13:58;10.07;;;6.90;;
15655;SDS011;7928;43.614;1.456;2023-02-15T08:16:28;9.57;;;5.87;;
15655;SDS011;7928;43.614;1.456;2023-02-15T08:18:59;10.77;;;6.27;;
15655;SDS011;7928;43.614;1.456;2023-02-15T08:21:28;8.23;;;5.97;;
15655;SDS011;7928;43.614;1.456;2023-02-15T08:23:57;10.90;;;6.47;;
15655;SDS011;7928;43.614;1.456;2023-02-15T08:26:24;6.37;;;5.43;;
15655;SDS011;7928;43.614;1.456;2023-02-15T08:28:54;9.90;;;5.57;;
15655;SDS011;7928;43.614;1.456;2023-02-15T08:31:21;9.07;;;5.77;;
15655;SDS011;7928;43.614;1.456;2023-02-15T08:33:49;13.60;;;6.43;;
15655;SDS011;7928;43.614;1.456;2023-02-15T08:36:20;10.33;;;5.77;;
15655;SDS011;7928;43.614;1.456;2023-02-15T08:38:48;7.37;;;5.50;;
15655;SDS011;7928;43.614;1.456;2023-02-15T08:41:16;11.33;;;5.77;;
15655;SDS011;7928;43.614;1.456;2023-02-15T08:43:45;11.70;;;5.97;;
15655;SDS011;7928;43.614;1.456;2023-02-15T08:46:14;9.73;;;5.50;;
15655;SDS011;7928;43.614;1.456;2023-02-15T08:48:42;7.60;;;5.37;;
15655;SDS011;7928;43.614;1.456;2023-02-15T08:51:10;15.80;;;5.70;;
15655;SDS011;7928;43.614;1.456;2023-02-15T08:53:41;8.20;;;5.07;;
15655;SDS011;7928;43.614;1.456;2023-02-15T08:56:11;9.77;;;5.40;;
15655;SDS011;7928;43.614;1.456;2023-02-15T08:58:38;7.93;;;5.37;;
15655;SDS011;7928;43.614;1.456;2023-02-15T09:01:09;7.03;;;4.83;;
15655;SDS011;7928;43.614;1.456;2023-02-15T09:03:37;18.23;;;6.17;;
15655;SDS011;7928;43.614;1.456;2023-02-15T09:06:04;12.90;;;5.00;;
15655;SDS011;7928;43.614;1.456;2023-02-15T09:08:32;10.40;;;5.43;;
15655;SDS011;7928;43.614;1.456;2023-02-15T09:11:08;10.27;;;5.23;;
15655;SDS011;7928;43.614;1.456;2023-02-15T09:13:36;15.00;;;5.57;;
15655;SDS011;7928;43.614;1.456;2023-02-15T09:16:03;9.43;;;4.80;;
15655;SDS011;7928;43.614;1.456;2023-02-15T09:18:33;10.87;;;5.43;;
15655;SDS011;7928;43.614;1.456;2023-02-15T09:21:06;11.53;;;5.17;;
15655;SDS011;7928;43.614;1.456;2023-02-15T09:23:34;12.27;;;5.07;;
15655;SDS011;7928;43.614;1.456;2023-02-15T09:26:03;9.07;;;4.80;;
15655;SDS011;7928;43.614;1.456;2023-02-15T09:28:32;9.23;;;4.87;;
15655;SDS011;7928;43.614;1.456;2023-02-15T09:31:07;8.83;;;5.30;;
15655;SDS011;7928;43.614;1.456;2023-02-15T09:33:36;9.93;;;5.17;;
15655;SDS011;7928;43.614;1.456;2023-02-15T09:36:05;6.57;;;4.50;;
15655;SDS011;7928;43.614;1.456;2023-02-15T09:38:42;8.63;;;4.67;;
15655;SDS011;7928;43.614;1.456;2023-02-15T09:44:07;8.83;;;4.17;;
15655;SDS011;7928;43.614;1.456;2023-02-15T09:46:47;6.63;;;4.63;;
15655;SDS011;7928;43.614;1.456;2023-02-15T09:49:31;5.73;;;4.37;;
15655;SDS011;7928;43.614;1.456;2023-02-15T09:52:12;4.87;;;3.70;;
15655;SDS011;7928;43.614;1.456;2023-02-15T09:55:03;8.00;;;4.77;;
15655;SDS011;7928;43.614;1.456;2023-02-15T09:57:41;9.20;;;4.90;;
15655;SDS011;7928;43.614;1.456;2023-02-15T10:00:16;6.43;;;4.03;;
15655;SDS011;7928;43.614;1.456;2023-02-15T10:02:59;7.97;;;4.77;;
15655;SDS011;7928;43.614;1.456;2023-02-15T10:05:38;10.30;;;4.40;;
15655;SDS011;7928;43.614;1.456;2023-02-15T10:08:21;12.70;;;5.03;;
15655;SDS011;7928;43.614;1.456;2023-02-15T10:11:03;9.97;;;4.67;;
15655;SDS011;7928;43.614;1.456;2023-02-15T10:14:01;11.57;;;4.53;;
15655;SDS011;7928;43.614;1.456;2023-02-15T10:16:45;15.63;;;4.27;;
15655;SDS011;7928;43.614;1.456;2023-02-15T10:19:23;7.63;;;3.90;;
15655;SDS011;7928;43.614;1.456;2023-02-15T10:22:01;6.23;;;4.07;;
15655;SDS011;7928;43.614;1.456;2023-02-15T10:24:41;9.00;;;4.00;;
15655;SDS011;7928;43.614;1.456;2023-02-15T10:27:21;8.67;;;4.10;;
15655;SDS011;7928;43.614;1.456;2023-02-15T10:29:50;6.70;;;3.87;;
15655;SDS011;7928;43.614;1.456;2023-02-15T10:32:31;6.40;;;3.50;;
15655;SDS011;7928;43.614;1.456;2023-02-15T10:35:07;5.60;;;3.70;;
15655;SDS011;7928;43.614;1.456;2023-02-15T10:37:46;6.10;;;3.57;;
15655;SDS011;7928;43.614;1.456;2023-02-15T10:40:22;4.87;;;3.17;;
15655;SDS011;7928;43.614;1.456;2023-02-15T10:42:59;6.33;;;3.10;;
15655;SDS011;7928;43.614;1.456;2023-02-15T10:45:46;7.77;;;3.20;;
15655;SDS011;7928;43.614;1.456;2023-02-15T10:48:27;5.87;;;3.03;;
15655;SDS011;7928;43.614;1.456;2023-02-15T10:51:04;4.73;;;2.67;;
15655;SDS011;7928;43.614;1.456;2023-02-15T10:53:38;4.87;;;3.03;;
15655;SDS011;7928;43.614;1.456;2023-02-15T10:56:23;4.63;;;3.17;;
15655;SDS011;7928;43.614;1.456;2023-02-15T10:59:03;8.87;;;3.40;;
15655;SDS011;7928;43.614;1.456;2023-02-15T11:01:44;4.77;;;2.70;;
15655;SDS011;7928;43.614;1.456;2023-02-15T11:04:39;4.83;;;2.77;;
15655;SDS011;7928;43.614;1.456;2023-02-15T11:07:14;5.83;;;3.07;;
15655;SDS011;7928;43.614;1.456;2023-02-15T11:09:46;5.30;;;2.73;;
15655;SDS011;7928;43.614;1.456;2023-02-15T11:12:17;4.93;;;2.80;;
15655;SDS011;7928;43.614;1.456;2023-02-15T11:14:49;6.32;;;2.55;;
15655;SDS011;7928;43.614;1.456;2023-02-15T11:17:21;6.03;;;3.03;;
15655;SDS011;7928;43.614;1.456;2023-02-15T11:19:56;5.25;;;3.20;;
15655;SDS011;7928;43.614;1.456;2023-02-15T11:22:29;4.72;;;3.40;;
15655;SDS011;7928;43.614;1.456;2023-02-15T11:24:58;4.97;;;2.80;;
15655;SDS011;7928;43.614;1.456;2023-02-15T11:27:27;5.40;;;2.65;;
15655;SDS011;7928;43.614;1.456;2023-02-15T11:29:58;7.32;;;3.05;;
15655;SDS011;7928;43.614;1.456;2023-02-15T11:32:28;5.22;;;3.40;;
15655;SDS011;7928;43.614;1.456;2023-02-15T11:35:00;5.53;;;2.55;;
15655;SDS011;7928;43.614;1.456;2023-02-15T11:37:33;5.43;;;2.65;;
15655;SDS011;7928;43.614;1.456;2023-02-15T11:40:06;4.95;;;3.20;;
15655;SDS011;7928;43.614;1.456;2023-02-15T11:42:44;3.88;;;2.92;;
15655;SDS011;7928;43.614;1.456;2023-02-15T11:45:17;4.10;;;2.80;;
15655;SDS011;7928;43.614;1.456;2023-02-15T11:47:48;4.55;;;2.97;;
15655;SDS011;7928;43.614;1.456;2023-02-15T11:50:19;3.55;;;2.78;;
15655;SDS011;7928;43.614;1.456;2023-02-15T11:52:49;7.05;;;3.58;;
15655;SDS011;7928;43.614;1.456;2023-02-15T11:55:18;5.53;;;3.67;;
15655;SDS011;7928;43.614;1.456;2023-02-15T11:57:48;5.57;;;3.60;;
15655;SDS011;7928;43.614;1.456;2023-02-15T12:00:24;7.25;;;3.65;;
15655;SDS011;7928;43.614;1.456;2023-02-15T12:03:02;6.03;;;3.35;;
15655;SDS011;7928;43.614;1.456;2023-02-15T12:05:37;8.43;;;3.60;;
15655;SDS011;7928;43.614;1.456;2023-02-15T12:08:15;7.60;;;3.10;;
15655;SDS011;7928;43.614;1.456;2023-02-15T12:10:50;4.13;;;2.53;;
15655;SDS011;7928;43.614;1.456;2023-02-15T12:13:24;3.83;;;2.87;;
15655;SDS011;7928;43.614;1.456;2023-02-15T12:15:52;4.65;;;2.65;;
15655;SDS011;7928;43.614;1.456;2023-02-15T12:18:27;4.18;;;2.70;;
15655;SDS011;7928;43.614;1.456;2023-02-15T12:21:04;5.88;;;2.88;;
15655;SDS011;7928;43.614;1.456;2023-02-15T12:23:34;5.80;;;2.83;;
15655;SDS011;7928;43.614;1.456;2023-02-15T12:26:08;6.28;;;3.42;;
15655;SDS011;7928;43.614;1.456;2023-02-15T12:28:36;6.22;;;3.30;;
15655;SDS011;7928;43.614;1.456;2023-02-15T12:31:07;6.78;;;2.85;;
15655;SDS011;7928;43.614;1.456;2023-02-15T12:33:46;3.85;;;2.85;;
15655;SDS011;7928;43.614;1.456;2023-02-15T12:36:17;6.93;;;2.80;;
15655;SDS011;7928;43.614;1.456;2023-02-15T12:41:29;5.07;;;3.05;;
15655;SDS011;7928;43.614;1.456;2023-02-15T12:44:05;4.70;;;2.30;;
15655;SDS011;7928;43.614;1.456;2023-02-15T12:46:41;5.07;;;2.55;;
15655;SDS011;7928;43.614;1.456;2023-02-15T12:49:14;4.55;;;2.63;;
15655;SDS011;7928;43.614;1.456;2023-02-15T12:51:47;2.75;;;2.30;;
15655;SDS011;7928;43.614;1.456;2023-02-15T12:54:17;8.15;;;2.70;;
15655;SDS011;7928;43.614;1.456;2023-02-15T12:56:54;5.10;;;2.83;;
15655;SDS011;7928;43.614;1.456;2023-02-15T12:59:23;6.60;;;2.63;;
15655;SDS011;7928;43.614;1.456;2023-02-15T13:01:51;5.53;;;3.80;;
15655;SDS011;7928;43.614;1.456;2023-02-15T13:04:21;5.78;;;2.95;;
15655;SDS011;7928;43.614;1.456;2023-02-15T13:06:52;4.82;;;2.70;;
15655;SDS011;7928;43.614;1.456;2023-02-15T13:09:24;5.63;;;2.63;;
15655;SDS011;7928;43.614;1.456;2023-02-15T13:12:08;2.97;;;2.47;;
15655;SDS011;7928;43.614;1.456;2023-02-15T13:14:41;3.95;;;2.75;;
15655;SDS011;7928;43.614;1.456;2023-02-15T13:17:11;4.78;;;2.75;;
15655;SDS011;7928;43.614;1.456;2023-02-15T13:19:40;3.90;;;2.75;;
15655;SDS011;7928;43.614;1.456;2023-02-15T13:22:12;3.70;;;2.60;;
15655;SDS011;7928;43.614;1.456;2023-02-15T13:24:43;5.32;;;2.75;;
15655;SDS011;7928;43.614;1.456;2023-02-15T13:27:14;4.43;;;2.65;;
15655;SDS011;7928;43.614;1.456;2023-02-15T13:29:44;5.15;;;2.78;;
15655;SDS011;7928;43.614;1.456;2023-02-15T13:32:24;3.95;;;2.70;;
15655;SDS011;7928;43.614;1.456;2023-02-15T13:34:54;3.37;;;2.57;;
15655;SDS011;7928;43.614;1.456;2023-02-15T13:37:28;2.90;;;2.58;;
15655;SDS011;7928;43.614;1.456;2023-02-15T13:40:10;3.03;;;2.63;;
15655;SDS011;7928;43.614;1.456;2023-02-15T13:42:42;3.60;;;2.50;;
15655;SDS011;7928;43.614;1.456;2023-02-15T13:45:28;5.03;;;3.07;;
15655;SDS011;7928;43.614;1.456;2023-02-15T13:48:10;5.80;;;2.53;;
15655;SDS011;7928;43.614;1.456;2023-02-15T13:50:50;4.17;;;2.77;;
15655;SDS011;7928;43.614;1.456;2023-02-15T13:56:22;3.87;;;2.87;;
15655;SDS011;7928;43.614;1.456;2023-02-15T14:01:53;5.73;;;2.50;;
15655;SDS011;7928;43.614;1.456;2023-02-15T14:04:31;3.70;;;2.47;;
15655;SDS011;7928;43.614;1.456;2023-02-15T14:07:29;4.50;;;2.63;;
15655;SDS011;7928;43.614;1.456;2023-02-15T14:10:15;4.55;;;2.83;;
15655;SDS011;7928;43.614;1.456;2023-02-15T14:13:03;3.50;;;2.50;;
15655;SDS011;7928;43.614;1.456;2023-02-15T14:15:47;9.70;;;2.83;;
15655;SDS011;7928;43.614;1.456;2023-02-15T14:18:23;4.20;;;2.20;;
15655;SDS011;7928;43.614;1.456;2023-02-15T14:21:02;5.25;;;2.35;;
15655;SDS011;7928;43.614;1.456;2023-02-15T14:23:42;4.85;;;2.28;;
15655;SDS011;7928;43.614;1.456;2023-02-15T14:26:21;4.65;;;2.65;;
15655;SDS011;7928;43.614;1.456;2023-02-15T14:28:58;2.95;;;2.40;;
15655;SDS011;7928;43.614;1.456;2023-02-15T14:31:34;4.60;;;2.03;;
15655;SDS011;7928;43.614;1.456;2023-02-15T14:34:07;3.60;;;2.25;;
15655;SDS011;7928;43.614;1.456;2023-02-15T14:36:46;3.17;;;2.30;;
15655;SDS011;7928;43.614;1.456;2023-02-15T14:39:16;4.50;;;2.10;;
15655;SDS011;7928;43.614;1.456;2023-02-15T14:42:11;2.88;;;2.10;;
15655;SDS011;7928;43.614;1.456;2023-02-15T14:44:47;4.28;;;2.15;;
15655;SDS011;7928;43.614;1.456;2023-02-15T14:47:18;5.15;;;2.22;;
15655;SDS011;7928;43.614;1.456;2023-02-15T14:49:49;5.82;;;2.15;;
15655;SDS011;7928;43.614;1.456;2023-02-15T14:52:16;5.85;;;2.10;;
15655;SDS011;7928;43.614;1.456;2023-02-15T14:54:55;3.28;;;2.20;;
15655;SDS011;7928;43.614;1.456;2023-02-15T14:57:36;5.10;;;2.78;;
15655;SDS011;7928;43.614;1.456;2023-02-15T15:03:03;6.57;;;2.67;;
15655;SDS011;7928;43.614;1.456;2023-02-15T15:05:46;4.22;;;2.38;;
15655;SDS011;7928;43.614;1.456;2023-02-15T15:08:21;2.92;;;2.10;;
15655;SDS011;7928;43.614;1.456;2023-02-15T15:10:52;6.68;;;2.03;;
15655;SDS011;7928;43.614;1.456;2023-02-15T15:13:38;2.85;;;2.08;;
15655;SDS011;7928;43.614;1.456;2023-02-15T15:16:27;3.67;;;2.28;;
15655;SDS011;7928;43.614;1.456;2023-02-15T15:18:56;3.90;;;2.08;;
15655;SDS011;7928;43.614;1.456;2023-02-15T15:42:47;4.57;;;2.30;;
15655;SDS011;7928;43.614;1.456;2023-02-15T15:45:29;3.88;;;2.65;;
15655;SDS011;7928;43.614;1.456;2023-02-15T15:51:06;2.83;;;1.98;;
15655;SDS011;7928;43.614;1.456;2023-02-15T15:53:40;4.25;;;2.38;;
15655;SDS011;7928;43.614;1.456;2023-02-15T15:56:12;3.70;;;2.80;;
15655;SDS011;7928;43.614;1.456;2023-02-15T15:58:46;5.95;;;2.70;;
15655;SDS011;7928;43.614;1.456;2023-02-15T16:01:16;4.03;;;2.40;;
15655;SDS011;7928;43.614;1.456;2023-02-15T16:03:50;6.00;;;3.08;;
15655;SDS011;7928;43.614;1.456;2023-02-15T16:06:28;5.15;;;2.78;;
15655;SDS011;7928;43.614;1.456;2023-02-15T16:09:09;4.13;;;2.80;;
15655;SDS011;7928;43.614;1.456;2023-02-15T16:11:41;5.07;;;2.37;;
15655;SDS011;7928;43.614;1.456;2023-02-15T16:14:14;3.80;;;2.60;;